Espanola, Washington
Current Conditions -  °F | °C
As of 6:28 AM on Friday 19 Dec 2014 (Local Time) from KSKA Reporting Station
Overcast Overcast  
Wind Chill:   Ceiling: 1900
Heat Index:   Visibility: 10mi
Dew Point:   Wind: 8mph
Humidity: 100%   Direction: 140°SE
Pressure: 29.85"   Gusts: NA
Location:  47.6094°N, 117.705°W
Report Text: KSKA 191428Z AUTO 14007KT 10SM FEW009 BKN019 OVC025 04/04 A2985 RMK AO2 RAE23 BKN V OVC
Loading
Personal Weather Stations






























Interactive Weather Map New forecast layout! Learn more

10-Day Weather Forecast

Advertisements
Track Severe Weather on mobile